createdAt,value
2023-05-11T00:01:29.716Z,10.75
2023-05-11T00:03:56.649Z,10.76
2023-05-11T00:06:23.514Z,10.80
2023-05-11T00:08:50.449Z,10.83
2023-05-11T00:11:18.658Z,10.82
2023-05-11T00:13:45.842Z,10.84
2023-05-11T00:16:12.798Z,10.92
2023-05-11T00:18:39.534Z,10.92
2023-05-11T00:21:06.237Z,10.97
2023-05-11T00:23:33.150Z,11.00
2023-05-11T00:25:59.756Z,11.06
2023-05-11T00:28:26.492Z,11.07
2023-05-11T00:30:57.549Z,11.08
2023-05-11T00:33:24.782Z,11.09
2023-05-11T00:35:51.812Z,11.10
2023-05-11T00:38:18.561Z,11.11
2023-05-11T00:40:45.470Z,11.03
2023-05-11T00:43:12.144Z,11.11
2023-05-11T00:45:39.969Z,11.09
2023-05-11T00:48:07.154Z,11.10
2023-05-11T00:50:35.901Z,11.19
2023-05-11T00:53:03.040Z,11.14
2023-05-11T00:55:30.582Z,11.16
2023-05-11T00:57:57.366Z,11.14
2023-05-11T01:00:23.986Z,11.19
2023-05-11T01:02:50.857Z,11.22
2023-05-11T01:05:17.988Z,11.21
2023-05-11T01:07:50.777Z,11.20
2023-05-11T01:10:33.058Z,11.18
2023-05-11T01:13:05.423Z,11.18
2023-05-11T01:15:48.081Z,11.07
2023-05-11T01:18:25.347Z,11.16
2023-05-11T01:20:59.941Z,11.17
2023-05-11T01:23:48.905Z,11.15
2023-05-11T01:26:37.072Z,11.14
2023-05-11T01:29:22.688Z,11.11
2023-05-11T01:31:53.410Z,11.10
2023-05-11T01:34:24.670Z,11.09
2023-05-11T01:36:56.134Z,11.07
2023-05-11T01:39:33.024Z,11.05
2023-05-11T01:42:10.385Z,11.03
2023-05-11T01:44:44.365Z,11.02
2023-05-11T01:47:13.524Z,11.01
2023-05-11T01:49:44.273Z,10.93
2023-05-11T01:52:11.516Z,10.98
2023-05-11T01:54:40.709Z,10.94
2023-05-11T01:57:09.546Z,10.83
2023-05-11T01:59:39.424Z,10.82
2023-05-11T02:02:08.548Z,10.80
2023-05-11T02:04:38.763Z,10.77
2023-05-11T02:07:08.194Z,10.75
2023-05-11T02:09:36.640Z,10.74
2023-05-11T02:12:05.449Z,10.76
2023-05-11T02:14:34.888Z,10.75
2023-05-11T02:17:03.890Z,10.68
2023-05-11T02:19:33.979Z,10.77
2023-05-11T02:22:02.190Z,10.75
2023-05-11T02:24:31.460Z,10.73
2023-05-11T02:26:59.118Z,10.66
2023-05-11T02:29:26.463Z,10.62
2023-05-11T02:32:03.420Z,10.59
2023-05-11T02:34:37.417Z,10.59
2023-05-11T02:37:09.919Z,10.48
2023-05-11T02:39:36.808Z,10.40
2023-05-11T02:42:22.104Z,10.31
2023-05-11T02:45:09.431Z,10.15
2023-05-11T02:47:56.765Z,10.09
2023-05-11T02:50:25.634Z,9.94
2023-05-11T02:52:56.943Z,9.83
2023-05-11T02:55:24.048Z,9.68
2023-05-11T02:57:50.740Z,9.56
2023-05-11T03:00:18.216Z,9.49
2023-05-11T03:02:45.353Z,9.38
2023-05-11T03:05:12.165Z,9.26
2023-05-11T03:07:38.788Z,9.17
2023-05-11T03:10:06.377Z,9.11
2023-05-11T03:12:34.662Z,9.05
2023-05-11T03:15:04.060Z,9.12
2023-05-11T03:17:31.508Z,9.13
2023-05-11T03:19:59.761Z,9.16
2023-05-11T03:22:27.785Z,9.21
2023-05-11T03:24:54.670Z,9.24
2023-05-11T03:27:22.138Z,9.25
2023-05-11T03:29:50.442Z,9.23
2023-05-11T03:32:17.246Z,9.25
2023-05-11T03:34:44.112Z,9.31
2023-05-11T03:37:13.290Z,9.36
2023-05-11T03:39:43.923Z,9.39
2023-05-11T03:42:13.728Z,9.43
2023-05-11T03:44:42.643Z,9.27
2023-05-11T03:47:10.406Z,9.51
2023-05-11T03:49:38.865Z,9.57
2023-05-11T03:52:07.168Z,9.62
2023-05-11T03:54:34.225Z,9.64
2023-05-11T03:57:01.269Z,9.66
2023-05-11T03:59:27.796Z,9.70
2023-05-11T04:01:55.162Z,9.80
2023-05-11T04:04:29.640Z,9.89
2023-05-11T04:06:56.497Z,9.85
2023-05-11T04:09:23.175Z,9.92
2023-05-11T04:11:50.365Z,10.00
2023-05-11T04:14:17.735Z,9.98
2023-05-11T04:16:45.070Z,10.09
2023-05-11T04:19:11.842Z,10.16
2023-05-11T04:21:39.259Z,10.25
2023-05-11T04:24:06.449Z,10.38
2023-05-11T04:26:33.893Z,10.49
2023-05-11T04:29:02.139Z,10.55
2023-05-11T04:31:30.741Z,10.68
2023-05-11T04:33:57.441Z,10.71
2023-05-11T04:36:24.236Z,10.85
2023-05-11T04:38:50.982Z,10.89
2023-05-11T04:41:17.648Z,10.89
2023-05-11T04:43:44.463Z,10.86
2023-05-11T04:46:12.844Z,10.82
2023-05-11T04:48:39.667Z,10.95
2023-05-11T04:51:06.496Z,11.00
2023-05-11T04:53:33.604Z,11.05
2023-05-11T04:56:00.418Z,11.11
2023-05-11T04:58:27.182Z,11.19
2023-05-11T05:00:54.003Z,11.29
2023-05-11T05:03:20.982Z,11.29
2023-05-11T05:05:48.001Z,11.40
2023-05-11T05:08:14.728Z,11.48
2023-05-11T05:10:41.482Z,11.55
2023-05-11T05:13:08.380Z,11.57
2023-05-11T05:15:35.182Z,11.58
2023-05-11T05:18:01.835Z,11.62
2023-05-11T05:20:28.513Z,11.69
2023-05-11T05:22:58.966Z,11.75
2023-05-11T05:25:25.598Z,11.80
2023-05-11T05:27:52.235Z,11.83
2023-05-11T05:30:19.070Z,11.95
2023-05-11T05:32:45.966Z,11.99
2023-05-11T05:35:13.188Z,12.12
2023-05-11T05:37:40.871Z,12.23
2023-05-11T05:40:09.062Z,12.42
2023-05-11T05:42:35.814Z,12.62
2023-05-11T05:45:02.401Z,12.85
2023-05-11T05:47:29.204Z,13.04
2023-05-11T05:49:55.833Z,13.26
2023-05-11T05:52:22.504Z,13.37
2023-05-11T05:54:49.083Z,13.49
2023-05-11T05:57:16.084Z,14.49
2023-05-11T05:59:42.717Z,14.83
2023-05-11T06:02:09.379Z,15.08
2023-05-11T06:04:36.237Z,15.56
2023-05-11T06:07:03.150Z,16.53
2023-05-11T06:09:29.779Z,16.78
2023-05-11T06:11:57.344Z,17.64
2023-05-11T06:14:25.016Z,18.03
2023-05-11T06:16:51.689Z,18.47
2023-05-11T06:19:18.360Z,17.97
2023-05-11T06:21:46.463Z,17.49
2023-05-11T06:24:13.216Z,17.12
2023-05-11T06:26:41.021Z,16.70
2023-05-11T06:29:08.102Z,17.03
2023-05-11T06:31:37.756Z,17.34
2023-05-11T06:34:04.590Z,17.73
2023-05-11T06:36:32.328Z,17.62
2023-05-11T06:38:59.121Z,18.02
2023-05-11T06:41:26.042Z,19.06
2023-05-11T06:43:52.722Z,19.76
2023-05-11T06:46:19.553Z,19.19
2023-05-11T06:48:46.292Z,18.49
2023-05-11T06:51:13.013Z,19.43
2023-05-11T06:53:39.822Z,20.22
2023-05-11T06:56:07.169Z,20.67
2023-05-11T06:58:34.753Z,21.31
2023-05-11T07:01:02.398Z,21.74
2023-05-11T07:03:29.082Z,21.85
2023-05-11T07:05:55.991Z,22.04
2023-05-11T07:08:22.539Z,22.03
2023-05-11T07:10:49.282Z,21.64
2023-05-11T07:13:15.975Z,21.30
2023-05-11T07:15:42.612Z,21.52
2023-05-11T07:18:09.403Z,21.25
2023-05-11T07:20:38.069Z,20.03
2023-05-11T07:23:04.610Z,20.68
2023-05-11T07:25:31.831Z,21.73
2023-05-11T07:27:58.634Z,22.23
2023-05-11T07:30:26.157Z,22.57
2023-05-11T07:32:53.403Z,21.74
2023-05-11T07:35:22.110Z,20.12
2023-05-11T07:37:50.007Z,20.35
2023-05-11T07:40:16.719Z,21.27
2023-05-11T07:42:43.876Z,21.56
2023-05-11T07:45:10.716Z,21.05
2023-05-11T07:47:37.337Z,20.98
2023-05-11T07:50:04.448Z,21.21
2023-05-11T07:52:31.070Z,20.71
2023-05-11T07:54:57.670Z,20.22
2023-05-11T07:57:25.377Z,20.19
2023-05-11T07:59:53.006Z,20.24
2023-05-11T08:02:19.675Z,19.97
2023-05-11T08:04:46.340Z,20.19
2023-05-11T08:07:13.046Z,20.90
2023-05-11T08:09:39.724Z,21.09
2023-05-11T08:12:06.438Z,21.62
2023-05-11T08:14:33.195Z,21.73
2023-05-11T08:16:59.920Z,22.13
2023-05-11T08:19:26.848Z,22.52
2023-05-11T08:21:53.646Z,22.50
2023-05-11T08:24:20.368Z,22.18
2023-05-11T08:26:47.289Z,21.71
2023-05-11T08:29:14.575Z,21.66
2023-05-11T08:31:41.343Z,21.74
2023-05-11T08:34:18.478Z,21.41
2023-05-11T08:36:46.882Z,21.70
2023-05-11T08:39:13.591Z,21.87
2023-05-11T08:41:40.268Z,21.32
2023-05-11T08:44:07.977Z,21.36
2023-05-11T08:46:40.115Z,21.17
2023-05-11T08:49:10.405Z,21.00
2023-05-11T08:51:37.245Z,21.94
2023-05-11T08:54:04.456Z,22.42
2023-05-11T08:56:32.011Z,22.46
2023-05-11T08:58:58.940Z,22.75
2023-05-11T09:01:30.670Z,21.17
2023-05-11T09:03:58.676Z,21.99
2023-05-11T09:06:27.427Z,23.16
2023-05-11T09:08:54.984Z,22.77
2023-05-11T09:11:23.209Z,22.72
2023-05-11T09:13:50.389Z,23.13
2023-05-11T09:16:32.942Z,23.39
2023-05-11T09:19:03.535Z,23.31
2023-05-11T09:21:31.147Z,23.38
2023-05-11T09:24:01.420Z,23.51
2023-05-11T09:26:29.858Z,23.01
2023-05-11T09:29:02.881Z,22.55
2023-05-11T09:31:46.559Z,23.95
2023-05-11T09:34:17.694Z,23.17
2023-05-11T09:36:47.652Z,23.89
2023-05-11T09:39:16.704Z,24.06
2023-05-11T09:41:43.688Z,24.36
2023-05-11T09:44:12.899Z,24.10
2023-05-11T09:46:41.460Z,24.00
2023-05-11T09:49:08.816Z,24.14
2023-05-11T09:51:38.260Z,24.62
2023-05-11T09:54:19.696Z,24.39
2023-05-11T09:56:52.568Z,24.93
2023-05-11T09:59:37.866Z,24.85
2023-05-11T10:02:21.527Z,24.86
2023-05-11T10:04:51.102Z,25.02
2023-05-11T10:07:28.380Z,24.47
2023-05-11T10:09:58.224Z,24.06
2023-05-11T10:12:26.558Z,23.83
2023-05-11T10:14:58.822Z,23.56
2023-05-11T10:17:25.879Z,24.00
2023-05-11T10:19:56.105Z,24.50
2023-05-11T10:22:26.198Z,24.88
2023-05-11T10:24:56.759Z,24.79
2023-05-11T10:27:25.019Z,23.52
2023-05-11T10:29:51.959Z,22.72
2023-05-11T10:32:19.777Z,22.47
2023-05-11T10:34:48.798Z,21.91
2023-05-11T10:37:16.496Z,21.61
2023-05-11T10:39:46.121Z,21.32
2023-05-11T10:42:39.830Z,20.88
2023-05-11T10:45:43.597Z,20.74
2023-05-11T10:48:50.934Z,20.68
2023-05-11T10:51:51.808Z,21.76
2023-05-11T10:54:40.955Z,22.98
2023-05-11T10:57:36.290Z,22.96
2023-05-11T11:00:47.899Z,23.44
2023-05-11T11:03:16.399Z,23.35
2023-05-11T11:05:44.093Z,23.03
2023-05-11T11:08:11.731Z,22.54
2023-05-11T11:10:49.403Z,22.69
2023-05-11T11:13:18.548Z,23.56
2023-05-11T11:15:55.500Z,23.75
2023-05-11T11:18:24.446Z,23.77
2023-05-11T11:20:53.504Z,23.78
2023-05-11T11:23:55.574Z,23.52
2023-05-11T11:26:47.407Z,23.54
2023-05-11T11:29:14.147Z,23.58
2023-05-11T11:31:41.899Z,23.53
2023-05-11T11:34:27.444Z,23.02
2023-05-11T11:37:03.908Z,22.82
2023-05-11T11:40:09.534Z,22.60
2023-05-11T11:42:42.749Z,22.62
2023-05-11T11:45:33.315Z,22.86
2023-05-11T11:48:24.027Z,22.94
2023-05-11T11:51:02.980Z,23.05
2023-05-11T11:53:40.840Z,22.90
2023-05-11T11:56:28.530Z,22.69
2023-05-11T11:59:05.073Z,22.34
2023-05-11T12:01:42.811Z,22.29
2023-05-11T12:04:39.354Z,22.50
2023-05-11T12:07:09.215Z,23.45
2023-05-11T12:09:37.336Z,23.30
2023-05-11T12:12:06.290Z,23.34
2023-05-11T12:14:34.114Z,24.03
2023-05-11T12:17:05.936Z,24.02
2023-05-11T12:19:32.842Z,24.39
2023-05-11T12:21:59.605Z,24.03
2023-05-11T12:24:26.772Z,23.60
2023-05-11T12:26:56.766Z,23.60
2023-05-11T12:29:23.701Z,23.49
2023-05-11T12:31:50.316Z,23.42
2023-05-11T12:34:18.807Z,23.30
2023-05-11T12:36:46.981Z,23.37
2023-05-11T12:39:21.683Z,23.68
2023-05-11T12:41:50.081Z,23.36
2023-05-11T12:44:18.191Z,22.54
2023-05-11T12:46:48.713Z,22.13
2023-05-11T12:49:34.232Z,22.24
2023-05-11T12:52:03.233Z,22.41
2023-05-11T12:54:32.805Z,22.41
2023-05-11T12:57:01.122Z,23.06
2023-05-11T12:59:34.511Z,23.78
2023-05-11T13:02:18.076Z,23.91
2023-05-11T13:04:45.954Z,24.46
2023-05-11T13:07:14.299Z,24.02
2023-05-11T13:09:41.761Z,23.66
2023-05-11T13:12:18.473Z,23.43
2023-05-11T13:14:48.910Z,22.90
2023-05-11T13:17:35.210Z,22.46
2023-05-11T13:20:27.038Z,23.02
2023-05-11T13:23:11.589Z,23.13
2023-05-11T13:25:48.861Z,23.37
2023-05-11T13:28:17.057Z,23.71
2023-05-11T13:30:44.920Z,23.53
2023-05-11T13:33:15.270Z,23.18
2023-05-11T13:35:42.740Z,23.41
2023-05-11T13:38:10.807Z,23.37
2023-05-11T13:40:38.324Z,23.21
2023-05-11T13:43:05.091Z,23.15
2023-05-11T13:45:33.238Z,23.31
2023-05-11T13:48:00.415Z,22.84
2023-05-11T13:50:27.080Z,23.02
2023-05-11T13:52:54.314Z,23.61
2023-05-11T13:55:21.674Z,23.79
2023-05-11T13:57:50.047Z,23.83
2023-05-11T14:00:17.395Z,24.36
2023-05-11T14:02:45.251Z,24.37
2023-05-11T14:05:12.034Z,23.89
2023-05-11T14:07:46.394Z,24.05
2023-05-11T14:10:14.482Z,24.17
2023-05-11T14:12:41.775Z,23.88
2023-05-11T14:15:10.044Z,24.30
2023-05-11T14:17:37.233Z,24.09
2023-05-11T14:20:05.221Z,24.33
2023-05-11T14:22:33.210Z,23.65
2023-05-11T14:25:00.058Z,23.59
2023-05-11T14:27:26.898Z,23.28
2023-05-11T14:29:54.294Z,23.35
2023-05-11T14:32:21.902Z,22.72
2023-05-11T14:34:50.988Z,22.92
2023-05-11T14:37:18.688Z,22.82
2023-05-11T14:39:45.552Z,23.00
2023-05-11T14:42:12.361Z,23.13
2023-05-11T14:44:39.260Z,23.34
2023-05-11T14:47:06.399Z,23.67
2023-05-11T14:49:33.057Z,23.48
2023-05-11T14:51:59.858Z,23.23
2023-05-11T14:54:26.654Z,23.22
2023-05-11T14:56:55.455Z,23.08
2023-05-11T14:59:26.139Z,22.85
2023-05-11T15:01:55.158Z,22.54
2023-05-11T15:04:22.585Z,22.27
2023-05-11T15:06:49.315Z,22.30
2023-05-11T15:09:17.566Z,22.24
2023-05-11T15:11:44.235Z,22.23
2023-05-11T15:14:11.544Z,22.30
2023-05-11T15:16:38.543Z,22.49
2023-05-11T15:19:07.121Z,22.40
2023-05-11T15:21:37.297Z,22.29
2023-05-11T15:24:04.591Z,22.17
2023-05-11T15:26:31.327Z,21.93
2023-05-11T15:29:00.490Z,21.98
2023-05-11T15:31:30.270Z,22.23
2023-05-11T15:33:57.736Z,22.40
2023-05-11T15:36:24.541Z,22.66
2023-05-11T15:38:51.439Z,22.78
2023-05-11T15:41:20.508Z,22.80
2023-05-11T15:43:49.753Z,22.68
2023-05-11T15:46:16.675Z,22.45
2023-05-11T15:48:43.613Z,22.17
2023-05-11T15:51:15.087Z,21.77
2023-05-11T15:53:41.954Z,21.55
2023-05-11T15:56:10.979Z,21.54
2023-05-11T15:58:38.663Z,21.87
2023-05-11T16:01:06.366Z,21.69
2023-05-11T16:03:33.515Z,21.77
2023-05-11T16:06:00.387Z,21.82
2023-05-11T16:08:29.311Z,22.10
2023-05-11T16:10:56.736Z,22.00
2023-05-11T16:13:24.559Z,22.00
2023-05-11T16:15:52.291Z,21.80
2023-05-11T16:18:19.968Z,21.87
2023-05-11T16:20:47.789Z,21.77
2023-05-11T16:23:14.466Z,21.62
2023-05-11T16:25:42.637Z,21.62
2023-05-11T16:28:09.444Z,21.52
2023-05-11T16:30:37.459Z,21.55
2023-05-11T16:33:05.641Z,21.49
2023-05-11T16:35:36.426Z,21.59
2023-05-11T16:38:05.382Z,21.56
2023-05-11T16:40:32.337Z,21.61
2023-05-11T16:43:02.381Z,21.65
2023-05-11T16:45:35.185Z,21.65
2023-05-11T16:48:02.045Z,21.46
2023-05-11T16:50:28.723Z,21.52
2023-05-11T16:52:59.797Z,21.50
2023-05-11T16:55:28.169Z,21.36
2023-05-11T16:57:55.163Z,21.35
2023-05-11T17:00:23.201Z,21.34
2023-05-11T17:02:50.691Z,21.22
2023-05-11T17:05:20.605Z,21.13
2023-05-11T17:07:49.137Z,21.07
2023-05-11T17:10:16.443Z,21.05
2023-05-11T17:12:44.720Z,20.99
2023-05-11T17:15:12.037Z,20.87
2023-05-11T17:17:39.284Z,20.62
2023-05-11T17:20:10.270Z,20.68
2023-05-11T17:22:37.905Z,20.60
2023-05-11T17:25:07.397Z,20.40
2023-05-11T17:27:37.558Z,20.37
2023-05-11T17:30:05.937Z,20.29
2023-05-11T17:32:33.414Z,20.20
2023-05-11T17:35:04.104Z,20.11
2023-05-11T17:37:32.430Z,20.04
2023-05-11T17:40:01.656Z,19.94
2023-05-11T17:42:28.546Z,19.92
2023-05-11T17:44:56.100Z,19.82
2023-05-11T17:47:22.805Z,19.69
2023-05-11T17:49:49.649Z,19.74
2023-05-11T17:52:17.130Z,19.66
2023-05-11T17:54:44.015Z,19.56
2023-05-11T17:57:13.242Z,19.33
2023-05-11T17:59:41.497Z,19.21
2023-05-11T18:02:09.476Z,19.03
2023-05-11T18:04:36.206Z,18.89
2023-05-11T18:07:04.603Z,18.74
2023-05-11T18:09:31.282Z,18.56
2023-05-11T18:11:57.895Z,18.39
2023-05-11T18:14:25.080Z,18.30
2023-05-11T18:16:53.079Z,18.15
2023-05-11T18:19:19.720Z,18.00
2023-05-11T18:21:46.712Z,17.90
2023-05-11T18:24:15.232Z,17.69
2023-05-11T18:26:42.324Z,17.67
2023-05-11T18:29:10.114Z,17.53
2023-05-11T18:31:38.666Z,17.40
2023-05-11T18:34:06.529Z,17.20
2023-05-11T18:36:35.216Z,17.13
2023-05-11T18:39:04.076Z,16.73
2023-05-11T18:41:30.791Z,16.84
2023-05-11T18:43:59.056Z,16.76
2023-05-11T18:46:27.502Z,16.64
2023-05-11T18:48:54.571Z,16.49
2023-05-11T18:51:25.685Z,16.36
2023-05-11T18:53:55.307Z,16.26
2023-05-11T18:56:22.535Z,16.17
2023-05-11T18:58:50.478Z,16.04
2023-05-11T19:01:18.782Z,16.07
2023-05-11T19:03:46.363Z,16.02
2023-05-11T19:06:14.704Z,15.95
2023-05-11T19:08:42.344Z,15.82
2023-05-11T19:11:10.579Z,15.72
2023-05-11T19:13:37.325Z,15.64
2023-05-11T19:16:04.969Z,15.37
2023-05-11T19:18:35.710Z,15.37
2023-05-11T19:21:04.847Z,15.38
2023-05-11T19:23:35.580Z,15.33
2023-05-11T19:26:06.497Z,15.21
2023-05-11T19:28:35.575Z,15.09
2023-05-11T19:31:04.911Z,15.03
2023-05-11T19:33:32.149Z,14.82
2023-05-11T19:35:59.734Z,14.66
2023-05-11T19:38:26.773Z,14.53
2023-05-11T19:40:53.801Z,14.37
2023-05-11T19:43:21.760Z,14.29
2023-05-11T19:45:49.886Z,14.23
2023-05-11T19:48:19.450Z,14.21
2023-05-11T19:50:47.702Z,14.31
2023-05-11T19:53:14.425Z,14.35
2023-05-11T19:55:44.084Z,14.37
2023-05-11T19:58:12.147Z,14.51
2023-05-11T20:00:41.381Z,14.51
2023-05-11T20:03:09.441Z,14.61
2023-05-11T20:05:36.760Z,14.67
2023-05-11T20:08:05.866Z,14.68
2023-05-11T20:10:34.846Z,14.69
2023-05-11T20:13:07.094Z,14.63
2023-05-11T20:15:36.899Z,14.62
2023-05-11T20:18:07.927Z,14.62
2023-05-11T20:20:34.689Z,14.62
2023-05-11T20:23:02.418Z,14.66
2023-05-11T20:25:30.162Z,14.59
2023-05-11T20:27:56.901Z,14.51
2023-05-11T20:30:23.851Z,14.43
2023-05-11T20:35:20.250Z,14.17
2023-05-11T20:37:48.584Z,14.03
2023-05-11T20:40:15.551Z,13.96
2023-05-11T20:42:42.153Z,13.90
2023-05-11T20:45:11.329Z,13.87
2023-05-11T20:47:38.097Z,13.84
2023-05-11T20:50:09.554Z,13.87
2023-05-11T20:52:39.446Z,13.88
2023-05-11T20:55:11.621Z,13.81
2023-05-11T20:57:38.866Z,13.72
2023-05-11T21:00:08.585Z,13.64
2023-05-11T21:02:35.416Z,13.48
2023-05-11T21:05:02.529Z,13.44
2023-05-11T21:07:29.998Z,13.37
2023-05-11T21:09:56.732Z,13.24
2023-05-11T21:12:23.458Z,13.12
2023-05-11T21:14:50.008Z,13.02
2023-05-11T21:17:16.749Z,12.86
2023-05-11T21:19:43.492Z,12.81
2023-05-11T21:22:10.093Z,12.76
2023-05-11T21:24:37.769Z,12.82
2023-05-11T21:27:04.898Z,12.79
2023-05-11T21:29:31.602Z,12.77
2023-05-11T21:31:58.255Z,12.78
2023-05-11T21:34:25.899Z,12.79
2023-05-11T21:36:52.627Z,12.79
2023-05-11T21:39:19.202Z,12.71
2023-05-11T21:41:45.946Z,12.72
2023-05-11T21:44:12.555Z,12.64
2023-05-11T21:46:39.231Z,12.55
2023-05-11T21:49:06.172Z,12.44
2023-05-11T21:51:33.549Z,12.33
2023-05-11T21:54:00.238Z,12.19
2023-05-11T21:56:26.948Z,12.29
2023-05-11T21:58:53.478Z,12.27
2023-05-11T22:01:21.113Z,12.17
2023-05-11T22:03:47.824Z,12.11
2023-05-11T22:06:14.517Z,12.01
2023-05-11T22:08:41.095Z,11.95
2023-05-11T22:11:07.919Z,11.97
2023-05-11T22:13:34.604Z,11.90
2023-05-11T22:16:01.406Z,12.07
2023-05-11T22:18:28.026Z,12.16
2023-05-11T22:20:54.910Z,12.23
2023-05-11T22:23:21.676Z,12.34
2023-05-11T22:25:48.260Z,12.40
2023-05-11T22:28:14.900Z,12.44
2023-05-11T22:30:41.605Z,12.45
2023-05-11T22:33:08.169Z,12.52
2023-05-11T22:35:34.892Z,12.45
2023-05-11T22:38:01.993Z,12.55
2023-05-11T22:40:28.638Z,12.55
2023-05-11T22:42:55.326Z,12.53
2023-05-11T22:45:22.033Z,12.57
2023-05-11T22:47:48.855Z,12.56
2023-05-11T22:50:15.721Z,12.58
2023-05-11T22:52:42.366Z,12.56
2023-05-11T22:55:09.643Z,12.52
2023-05-11T22:57:36.190Z,12.50
2023-05-11T23:00:04.005Z,12.56
2023-05-11T23:02:30.806Z,12.50
2023-05-11T23:04:57.589Z,12.52
2023-05-11T23:07:24.227Z,12.52
2023-05-11T23:09:52.882Z,12.52
2023-05-11T23:12:19.758Z,12.54
2023-05-11T23:14:47.437Z,12.57
2023-05-11T23:17:14.062Z,12.60
2023-05-11T23:19:40.816Z,12.65
2023-05-11T23:22:07.620Z,12.66
2023-05-11T23:24:34.711Z,12.60
2023-05-11T23:27:01.505Z,12.66
2023-05-11T23:29:28.176Z,12.71
2023-05-11T23:31:55.968Z,12.76
2023-05-11T23:34:22.595Z,12.70
2023-05-11T23:36:49.320Z,12.81
2023-05-11T23:39:15.955Z,12.69
2023-05-11T23:41:42.674Z,12.74
2023-05-11T23:44:09.373Z,12.70
2023-05-11T23:46:36.306Z,12.64
2023-05-11T23:49:03.573Z,12.52
2023-05-11T23:51:30.569Z,12.42
2023-05-11T23:53:57.238Z,12.46
2023-05-11T23:56:23.981Z,12.43
2023-05-11T23:58:50.708Z,12.35
